createdAt,value
2023-08-09T00:03:34.401Z,66.98
2023-08-09T00:08:39.997Z,67.13
2023-08-09T00:13:44.094Z,66.37
2023-08-09T00:18:48.083Z,66.15
2023-08-09T00:29:21.739Z,67.36
2023-08-09T00:34:27.056Z,66.67
2023-08-09T00:39:33.403Z,66.01
2023-08-09T00:44:37.625Z,66.73
2023-08-09T00:49:42.007Z,66.45
2023-08-09T00:54:50.684Z,67.51
2023-08-09T00:59:55.121Z,70.36
2023-08-09T01:04:59.840Z,68.67
2023-08-09T01:10:13.999Z,67.52
2023-08-09T01:15:21.157Z,67.93
2023-08-09T01:20:26.347Z,67.01
2023-08-09T01:25:32.671Z,67.70
2023-08-09T01:30:38.290Z,69.65
2023-08-09T01:35:51.615Z,69.24
2023-08-09T01:40:57.866Z,69.42
2023-08-09T01:46:03.244Z,69.50
2023-08-09T01:51:07.318Z,69.54
2023-08-09T01:56:12.725Z,69.30
2023-08-09T02:01:17.099Z,69.67
2023-08-09T02:06:21.178Z,69.26
2023-08-09T02:11:27.095Z,67.97
2023-08-09T02:16:31.150Z,67.68
2023-08-09T02:21:35.219Z,67.68
2023-08-09T02:26:41.466Z,66.89
2023-08-09T02:31:45.790Z,67.56
2023-08-09T02:36:49.910Z,67.44
2023-08-09T02:41:55.297Z,67.15
2023-08-09T02:46:59.733Z,67.68
2023-08-09T02:52:04.073Z,67.61
2023-08-09T02:57:09.638Z,67.31
2023-08-09T03:02:13.760Z,67.10
2023-08-09T03:07:19.312Z,68.22
2023-08-09T03:12:26.599Z,68.02
2023-08-09T03:17:30.947Z,68.25
2023-08-09T03:22:36.332Z,67.73
2023-08-09T03:27:43.450Z,67.09
2023-08-09T03:32:49.614Z,66.88
2023-08-09T03:37:54.243Z,66.80
2023-08-09T03:42:59.655Z,67.50
2023-08-09T03:48:05.737Z,68.86
2023-08-09T03:53:10.228Z,68.88
2023-08-09T03:58:18.417Z,68.73
2023-08-09T04:03:23.308Z,68.41
2023-08-09T04:08:28.543Z,68.88
2023-08-09T04:13:36.135Z,70.33
2023-08-09T04:18:49.620Z,69.07
2023-08-09T04:23:53.975Z,71.24
2023-08-09T04:28:59.678Z,73.65
2023-08-09T04:34:04.050Z,72.70
2023-08-09T04:39:10.523Z,72.54
2023-08-09T04:44:17.121Z,71.25
2023-08-09T04:49:21.528Z,70.97
2023-08-09T04:54:25.608Z,70.96
2023-08-09T04:59:32.200Z,71.37
2023-08-09T05:04:36.543Z,70.50
2023-08-09T05:09:43.328Z,70.01
2023-08-09T05:14:49.687Z,71.00
2023-08-09T05:19:53.709Z,70.53
2023-08-09T05:24:58.078Z,71.46
2023-08-09T05:30:04.670Z,70.42
2023-08-09T05:35:09.353Z,69.10
2023-08-09T05:40:15.341Z,68.87
2023-08-09T05:45:21.374Z,67.08
2023-08-09T05:50:25.677Z,65.70
2023-08-09T05:55:31.018Z,64.81
2023-08-09T06:00:40.077Z,64.37
2023-08-09T06:05:44.308Z,64.86
2023-08-09T06:10:48.766Z,64.31
2023-08-09T06:15:55.210Z,63.91
2023-08-09T06:21:00.087Z,63.15
2023-08-09T06:26:04.570Z,62.39
2023-08-09T06:31:11.615Z,60.87
2023-08-09T06:36:16.952Z,60.28
2023-08-09T06:41:21.134Z,61.12
2023-08-09T06:46:27.250Z,60.93
2023-08-09T06:51:32.301Z,60.54
2023-08-09T06:56:36.901Z,59.97
2023-08-09T07:01:43.601Z,59.81
2023-08-09T07:07:12.885Z,58.91
2023-08-09T07:12:18.980Z,58.17
2023-08-09T07:17:28.079Z,56.79
2023-08-09T07:22:32.180Z,55.88
2023-08-09T07:27:37.993Z,54.77
2023-08-09T07:32:44.414Z,53.78
2023-08-09T07:37:51.864Z,53.80
2023-08-09T07:42:57.136Z,51.59
2023-08-09T07:48:03.251Z,47.92
2023-08-09T07:53:07.350Z,47.76
2023-08-09T07:58:11.383Z,47.26
2023-08-09T08:03:16.981Z,46.44
2023-08-09T08:08:21.321Z,45.90
2023-08-09T08:13:25.506Z,46.26
2023-08-09T08:18:31.978Z,47.27
2023-08-09T08:23:36.083Z,47.15
2023-08-09T08:28:40.297Z,45.92
2023-08-09T08:33:46.953Z,45.41
2023-08-09T08:38:51.809Z,44.89
2023-08-09T08:43:57.989Z,45.14
2023-08-09T08:49:06.479Z,44.65
2023-08-09T08:54:11.403Z,44.57
2023-08-09T08:59:16.642Z,41.80
2023-08-09T09:04:22.165Z,41.55
2023-08-09T09:09:26.997Z,39.40
2023-08-09T09:14:31.298Z,38.64
2023-08-09T09:19:37.710Z,37.28
2023-08-09T09:24:41.734Z,37.84
2023-08-09T09:29:45.959Z,37.80
2023-08-09T09:34:53.303Z,37.31
2023-08-09T09:39:57.689Z,35.75
2023-08-09T09:45:06.452Z,34.03
2023-08-09T09:50:13.111Z,34.23
2023-08-09T09:55:20.998Z,35.26
2023-08-09T10:00:27.071Z,35.84
2023-08-09T10:05:39.116Z,36.21
2023-08-09T10:10:45.667Z,36.62
2023-08-09T10:15:52.595Z,37.21
2023-08-09T10:21:01.782Z,37.65
2023-08-09T10:26:05.864Z,37.17
2023-08-09T10:31:10.181Z,36.17
2023-08-09T10:36:34.934Z,34.82
2023-08-09T10:41:42.301Z,35.16
2023-08-09T10:46:49.041Z,34.98
2023-08-09T10:51:56.322Z,33.88
2023-08-09T10:57:11.016Z,33.13
2023-08-09T11:02:18.921Z,32.20
2023-08-09T11:07:25.031Z,32.09
2023-08-09T11:12:30.120Z,30.76
2023-08-09T11:17:34.651Z,30.17
2023-08-09T11:22:40.372Z,29.88
2023-08-09T11:27:44.891Z,29.62
2023-08-09T11:32:57.767Z,28.92
2023-08-09T11:38:08.327Z,27.80
2023-08-09T11:43:14.326Z,28.06
2023-08-09T11:48:33.121Z,27.88
2023-08-09T11:53:40.193Z,28.35
2023-08-09T11:58:46.496Z,28.90
2023-08-09T12:03:52.713Z,29.27
2023-08-09T12:08:58.420Z,29.34
2023-08-09T12:14:02.785Z,29.48
2023-08-09T12:19:06.953Z,29.53
2023-08-09T12:29:41.035Z,28.58
2023-08-09T12:34:45.720Z,28.69
2023-08-09T12:39:52.280Z,28.97
2023-08-09T12:44:56.332Z,30.20
2023-08-09T12:50:00.475Z,29.32
2023-08-09T12:55:07.218Z,28.49
2023-08-09T13:00:13.465Z,29.22
2023-08-09T13:05:18.399Z,28.82
2023-08-09T13:10:24.031Z,29.05
2023-08-09T13:15:28.132Z,28.58
2023-08-09T13:20:32.534Z,27.36
2023-08-09T13:25:38.059Z,26.33
2023-08-09T13:30:42.304Z,28.44
2023-08-09T13:35:47.385Z,28.63
2023-08-09T13:40:52.857Z,28.10
2023-08-09T13:45:57.022Z,28.64
2023-08-09T13:51:01.265Z,28.35
2023-08-09T13:56:07.248Z,28.46
2023-08-09T14:01:12.332Z,28.33
2023-08-09T14:06:16.609Z,29.50
2023-08-09T14:11:24.332Z,31.44
2023-08-09T14:16:29.342Z,31.27
2023-08-09T14:21:34.329Z,30.57
2023-08-09T14:26:40.588Z,31.50
2023-08-09T14:31:45.376Z,30.99
2023-08-09T14:36:50.286Z,31.52
2023-08-09T14:41:56.203Z,32.38
2023-08-09T14:47:00.604Z,32.88
2023-08-09T14:52:05.311Z,34.01
2023-08-09T14:57:13.095Z,33.53
2023-08-09T15:02:17.486Z,34.02
2023-08-09T15:07:23.571Z,34.96
2023-08-09T15:12:29.317Z,35.91
2023-08-09T15:23:02.003Z,37.08
2023-08-09T15:28:08.393Z,36.30
2023-08-09T15:33:12.774Z,37.03
2023-08-09T15:38:17.683Z,37.24
2023-08-09T15:43:23.093Z,37.51
2023-08-09T15:48:31.240Z,37.70
2023-08-09T15:53:35.283Z,37.51
2023-08-09T15:58:40.773Z,37.55
2023-08-09T16:03:45.475Z,37.86
2023-08-09T16:14:19.307Z,39.81
2023-08-09T16:19:23.415Z,39.60
2023-08-09T16:24:28.402Z,40.22
2023-08-09T16:29:37.500Z,41.95
2023-08-09T16:34:43.505Z,43.04
2023-08-09T16:39:47.652Z,44.01
2023-08-09T16:44:53.523Z,44.91
2023-08-09T16:49:57.847Z,45.36
2023-08-09T16:55:02.133Z,46.12
2023-08-09T17:00:15.985Z,46.58
2023-08-09T17:05:20.961Z,47.57
2023-08-09T17:10:27.700Z,47.39
2023-08-09T17:15:33.554Z,46.86
2023-08-09T17:20:38.438Z,47.39
2023-08-09T17:25:42.615Z,48.06
2023-08-09T17:30:49.096Z,49.35
2023-08-09T17:35:53.306Z,50.20
2023-08-09T17:40:57.388Z,50.41
2023-08-09T17:46:03.346Z,51.45
2023-08-09T17:51:07.795Z,51.48
2023-08-09T17:56:11.874Z,52.14
2023-08-09T18:01:17.737Z,52.92
2023-08-09T18:06:22.331Z,53.02
2023-08-09T18:11:26.452Z,53.99
2023-08-09T18:16:31.954Z,54.90
2023-08-09T18:21:36.029Z,55.46
2023-08-09T18:26:40.129Z,54.68
2023-08-09T18:31:47.325Z,54.58
2023-08-09T18:36:51.448Z,54.41
2023-08-09T18:41:55.687Z,54.96
2023-08-09T18:47:02.199Z,55.72
2023-08-09T18:52:07.527Z,55.77
2023-08-09T18:57:11.639Z,55.44
2023-08-09T19:02:17.144Z,55.70
2023-08-09T19:07:23.872Z,56.10
2023-08-09T19:12:31.108Z,56.47
2023-08-09T19:17:40.007Z,56.65
2023-08-09T19:22:45.463Z,56.32
2023-08-09T19:27:49.492Z,56.76
2023-08-09T19:32:55.099Z,57.06
2023-08-09T19:37:59.260Z,57.68
2023-08-09T19:43:03.428Z,58.10
2023-08-09T19:48:09.304Z,58.81
2023-08-09T19:53:13.419Z,58.97
2023-08-09T19:58:18.342Z,59.40
2023-08-09T20:03:24.040Z,59.68
2023-08-09T20:08:28.104Z,60.40
2023-08-09T20:13:32.198Z,60.33
2023-08-09T20:18:38.046Z,59.18
2023-08-09T20:23:42.077Z,58.16
2023-08-09T20:28:46.253Z,57.95
2023-08-09T20:33:52.211Z,58.69
2023-08-09T20:38:56.304Z,59.09
2023-08-09T20:44:00.469Z,59.39
2023-08-09T20:49:08.519Z,58.99
2023-08-09T20:54:12.593Z,59.00
2023-08-09T20:59:16.698Z,58.42
2023-08-09T21:04:22.143Z,59.54
2023-08-09T21:09:26.528Z,59.51
2023-08-09T21:14:30.697Z,59.64
2023-08-09T21:19:37.289Z,59.86
2023-08-09T21:24:41.931Z,59.54
2023-08-09T21:29:47.722Z,59.01
2023-08-09T21:34:54.552Z,59.36
2023-08-09T21:39:58.889Z,59.11
2023-08-09T21:45:03.664Z,58.33
2023-08-09T21:50:10.433Z,57.98
2023-08-09T21:55:15.717Z,57.07
2023-08-09T22:00:22.261Z,56.85
2023-08-09T22:05:27.890Z,58.62
2023-08-09T22:10:33.528Z,60.10
2023-08-09T22:15:38.194Z,60.37
2023-08-09T22:20:44.077Z,60.44
2023-08-09T22:25:48.570Z,59.99
2023-08-09T22:30:52.943Z,59.68
2023-08-09T22:35:58.514Z,60.43
2023-08-09T22:41:04.197Z,59.65
2023-08-09T22:46:08.637Z,58.10
2023-08-09T22:51:14.697Z,57.53
2023-08-09T22:56:20.281Z,56.92
2023-08-09T23:01:24.574Z,57.20
2023-08-09T23:06:30.671Z,57.78
2023-08-09T23:11:34.986Z,57.49
2023-08-09T23:16:39.167Z,57.59
2023-08-09T23:21:45.172Z,58.08
2023-08-09T23:26:50.050Z,58.30
2023-08-09T23:31:57.468Z,59.19
2023-08-09T23:37:02.898Z,60.09
2023-08-09T23:42:09.289Z,60.16
2023-08-09T23:47:13.919Z,60.94
2023-08-09T23:52:19.560Z,61.08
2023-08-09T23:57:24.178Z,60.82
